Time;durP1;ratioP1;P1;durP2;ratioP2;P2;SDS_P1;SDS_P2;PMS_P1;PMS_P2;Temp;Humidity;BMP_temperature;BMP_pressure;BME280_temperature;BME280_humidity;BME280_pressure;Samples;Min_cycle;Max_cycle;Signal;HPM_P1;HPM_P2
2023/06/16 00:00:35;;;;;;;;;9.00;9.00;;;;;25.94;32.41;101231.81;4977856;28;45440;-72
2023/06/16 00:03:01;;;;;;;;;12.33;12.00;;;;;25.92;31.89;101228.50;4978072;28;45382;-73
2023/06/16 00:05:28;;;;;;;;;9.00;9.00;;;;;25.95;32.78;101228.03;4977695;28;45750;-72
2023/06/16 00:07:54;;;;;;;;;7.67;7.67;;;;;25.86;32.31;101215.81;4978192;28;45320;-73
2023/06/16 00:10:20;;;;;;;;;9.00;8.00;;;;;25.89;32.46;101234.41;4978072;28;45426;-72
2023/06/16 00:12:45;;;;;;;;;9.67;9.67;;;;;25.93;32.70;101254.69;4978059;28;45511;-73
2023/06/16 00:15:11;;;;;;;;;9.00;9.00;;;;;25.68;32.37;101203.09;4960076;28;46503;-74
2023/06/16 00:17:44;;;;;;;;;10.00;10.00;;;;;25.92;32.70;101239.41;4977732;28;45341;-73
2023/06/16 00:20:10;;;;;;;;;9.00;9.00;;;;;25.88;32.13;101230.88;4976836;28;45501;-73
2023/06/16 00:22:35;;;;;;;;;10.00;8.67;;;;;25.90;32.33;101245.09;4976138;28;45400;-71
2023/06/16 00:25:01;;;;;;;;;10.00;8.67;;;;;25.86;32.11;101234.91;4960243;28;47583;-74
2023/06/16 00:27:26;;;;;;;;;8.67;8.67;;;;;25.90;32.27;101246.97;4977713;28;45305;-72
2023/06/16 00:29:51;;;;;;;;;4.33;4.33;;;;;25.88;32.57;101236.31;4977311;28;50615;-72
2023/06/16 00:32:17;;;;;;;;;11.00;10.00;;;;;25.72;32.44;101212.47;4977869;28;45537;-73
2023/06/16 00:34:42;;;;;;;;;9.00;9.00;;;;;25.83;32.08;101235.34;4977640;28;46347;-74
2023/06/16 00:37:08;;;;;;;;;10.67;9.67;;;;;25.73;32.60;101220.41;4977374;28;45274;-73
2023/06/16 00:39:33;;;;;;;;;8.00;8.00;;;;;25.82;32.63;101239.13;4977484;28;45223;-75
2023/06/16 00:41:58;;;;;;;;;8.33;8.33;;;;;25.80;32.63;101238.53;4977928;28;45287;-72
2023/06/16 00:44:24;;;;;;;;;9.33;9.33;;;;;25.81;32.58;101234.75;4977819;28;45684;-73
2023/06/16 00:46:50;;;;;;;;;12.33;11.00;;;;;25.81;32.41;101237.47;4957513;28;45481;-73
2023/06/16 00:49:15;;;;;;;;;6.33;5.33;;;;;25.72;32.50;101235.09;4940040;28;45373;-75
2023/06/16 00:51:42;;;;;;;;;6.67;6.67;;;;;25.76;32.83;101241.72;4957789;28;45843;-74
2023/06/16 00:54:07;;;;;;;;;10.33;9.33;;;;;25.72;32.86;101237.81;4958844;28;46308;-72
2023/06/16 00:56:34;;;;;;;;;10.33;10.33;;;;;25.67;32.93;101234.94;4977298;28;45327;-75
2023/06/16 00:58:59;;;;;;;;;10.67;10.67;;;;;25.68;33.19;101247.50;4977259;28;45306;-73
2023/06/16 01:01:28;;;;;;;;;9.67;9.00;;;;;25.57;33.00;101237.34;4977122;28;45413;-74
2023/06/16 01:03:53;;;;;;;;;9.00;9.00;;;;;25.52;33.38;101244.56;4976742;28;46201;-73
2023/06/16 01:06:48;;;;;;;;;8.33;8.33;;;;;25.46;33.24;101243.59;4976513;28;45191;-73
2023/06/16 01:09:13;;;;;;;;;7.00;6.67;;;;;25.39;33.76;101240.13;4976496;28;45572;-73
2023/06/16 01:11:48;;;;;;;;;10.33;9.00;;;;;25.03;33.66;101198.31;4977136;28;45460;-72
2023/06/16 01:14:19;;;;;;;;;11.00;11.00;;;;;25.27;33.93;101237.34;4976881;28;46330;-72
2023/06/16 01:16:46;;;;;;;;;10.33;8.00;;;;;25.22;34.15;101233.63;4977135;28;45400;-74
2023/06/16 01:19:19;;;;;;;;;8.00;7.00;;;;;25.19;34.08;101232.22;4976810;28;45497;-73
2023/06/16 01:22:00;;;;;;;;;8.00;8.00;;;;;25.15;34.40;101229.13;4977010;28;45556;-73
2023/06/16 01:24:28;;;;;;;;;13.00;12.67;;;;;25.21;34.37;101248.31;4975368;28;46537;-74
2023/06/16 01:26:58;;;;;;;;;11.00;9.67;;;;;25.18;34.24;101236.81;4976814;28;45314;-73
2023/06/16 01:29:25;;;;;;;;;9.33;9.33;;;;;25.16;34.29;101232.66;4976673;28;45274;-72
2023/06/16 01:31:58;;;;;;;;;12.00;12.00;;;;;25.13;34.40;101230.41;4978449;28;45215;-72
2023/06/16 01:34:26;;;;;;;;;10.67;10.67;;;;;25.11;34.53;101230.66;4980203;28;46636;-72
2023/06/16 01:37:00;;;;;;;;;10.67;9.67;;;;;25.05;34.38;101234.28;4962343;28;45755;-74
2023/06/16 01:39:27;;;;;;;;;11.33;9.67;;;;;24.75;34.81;101196.09;4980231;28;45340;-74
2023/06/16 01:41:55;;;;;;;;;12.00;11.00;;;;;24.98;34.91;101232.66;4980349;28;45603;-73
2023/06/16 01:44:22;;;;;;;;;10.33;9.33;;;;;24.87;34.96;101220.66;4979668;28;45780;-73
2023/06/16 01:46:48;;;;;;;;;9.67;9.67;;;;;24.92;35.16;101228.13;4980164;28;45341;-72
2023/06/16 01:49:15;;;;;;;;;9.33;9.33;;;;;24.86;35.16;101229.88;4979852;28;45370;-72
2023/06/16 01:51:40;;;;;;;;;8.33;8.33;;;;;24.88;35.27;101230.47;4979973;28;45302;-73
2023/06/16 01:54:05;;;;;;;;;11.00;10.00;;;;;24.85;35.27;101229.03;4980302;28;45701;-73
2023/06/16 01:56:31;;;;;;;;;11.00;9.67;;;;;24.76;35.45;101207.78;4980100;28;45496;-72
2023/06/16 01:58:58;;;;;;;;;8.00;8.00;;;;;24.44;35.54;101180.75;4979584;28;45334;-73
2023/06/16 02:01:29;;;;;;;;;10.00;10.00;;;;;24.75;35.67;101239.59;4979836;28;45552;-72
2023/06/16 02:04:05;;;;;;;;;9.00;9.00;;;;;24.78;35.55;101241.84;4961821;28;47658;-72
2023/06/16 02:06:37;;;;;;;;;11.00;11.00;;;;;24.73;35.63;101232.72;4979349;28;45607;-72
2023/06/16 02:09:05;;;;;;;;;9.33;7.67;;;;;24.62;35.83;101217.97;4979763;28;45513;-72
2023/06/16 02:11:32;;;;;;;;;12.33;12.33;;;;;24.78;35.56;101238.31;4979763;28;45316;-72
2023/06/16 02:13:57;;;;;;;;;11.33;11.00;;;;;24.79;35.44;101229.91;4979321;28;46895;-72
2023/06/16 02:16:24;;;;;;;;;9.67;9.67;;;;;24.77;35.46;101234.75;4979362;28;45531;-71
2023/06/16 02:18:53;;;;;;;;;9.33;9.33;;;;;24.74;35.66;101232.50;4979303;28;45495;-74
2023/06/16 02:21:19;;;;;;;;;8.00;8.00;;;;;24.81;35.11;101238.69;4979383;28;45428;-73
2023/06/16 02:23:44;;;;;;;;;11.00;9.67;;;;;24.80;35.70;101236.19;4979055;28;45485;-73
2023/06/16 02:26:10;;;;;;;;;9.00;9.00;;;;;24.54;35.46;101194.66;4979364;28;45375;-72
2023/06/16 02:28:35;;;;;;;;;9.00;9.00;;;;;24.75;35.39;101220.56;4952236;28;45334;-73
2023/06/16 02:31:00;;;;;;;;;8.67;8.67;;;;;24.50;35.49;101185.28;4942509;28;45549;-72
2023/06/16 02:33:27;;;;;;;;;9.33;9.33;;;;;24.73;35.48;101224.56;4967370;28;45534;-73
2023/06/16 02:35:52;;;;;;;;;11.00;8.00;;;;;24.81;35.08;101237.84;4979520;28;45390;-74
2023/06/16 02:38:17;;;;;;;;;9.67;9.67;;;;;24.44;34.83;101172.59;4955626;28;45521;-73
2023/06/16 02:40:43;;;;;;;;;8.00;8.00;;;;;24.77;34.93;101226.59;4959928;28;45475;-74
2023/06/16 02:43:08;;;;;;;;;11.00;9.67;;;;;24.81;35.02;101232.41;4963595;28;46126;-74
2023/06/16 02:45:33;;;;;;;;;12.33;11.00;;;;;24.76;35.12;101224.94;4978981;28;45353;-74
2023/06/16 02:47:59;;;;;;;;;10.67;9.67;;;;;24.78;35.31;101228.25;4978915;28;45458;-75
2023/06/16 02:50:24;;;;;;;;;10.33;10.33;;;;;24.73;34.90;101225.41;4979150;28;45290;-73
2023/06/16 02:52:50;;;;;;;;;14.33;11.33;;;;;24.41;34.76;101170.31;4961209;28;47519;-73
2023/06/16 02:55:16;;;;;;;;;9.33;9.33;;;;;24.47;35.30;101193.88;4978828;28;45505;-73
2023/06/16 02:57:41;;;;;;;;;12.33;10.67;;;;;24.72;35.32;101231.06;4978795;28;45540;-73
2023/06/16 03:00:10;;;;;;;;;9.00;8.00;;;;;24.61;35.57;101210.03;4979056;28;45500;-72
2023/06/16 03:02:36;;;;;;;;;9.67;9.67;;;;;24.57;35.34;101215.94;4960851;28;47711;-72
2023/06/16 03:05:03;;;;;;;;;11.00;10.00;;;;;24.56;35.71;101216.16;4978426;28;45311;-76
2023/06/16 03:07:34;;;;;;;;;11.67;9.33;;;;;24.62;35.29;101228.00;4978607;28;45333;-72
2023/06/16 03:09:59;;;;;;;;;12.67;10.33;;;;;24.56;35.53;101227.88;4978692;28;45285;-72
2023/06/16 03:12:25;;;;;;;;;12.33;12.33;;;;;24.55;35.95;101222.66;4978573;28;46646;-73
2023/06/16 03:14:50;;;;;;;;;11.00;9.67;;;;;24.50;36.23;101215.19;4943938;28;45339;-73
2023/06/16 03:17:20;;;;;;;;;9.00;9.00;;;;;24.56;35.65;101222.44;4959400;28;45300;-72
2023/06/16 03:19:46;;;;;;;;;12.67;12.67;;;;;24.50;36.20;101231.50;4974991;28;45472;-72
2023/06/16 03:22:11;;;;;;;;;11.00;9.00;;;;;24.50;36.13;101227.94;4977864;28;45809;-73
2023/06/16 03:24:38;;;;;;;;;12.00;10.67;;;;;24.31;36.23;101204.50;4978205;28;45310;-74
2023/06/16 03:27:03;;;;;;;;;10.00;9.33;;;;;24.39;36.06;101232.22;4978429;28;45496;-72
2023/06/16 03:29:28;;;;;;;;;13.33;13.33;;;;;24.29;36.50;101223.75;4978217;28;45473;-72
2023/06/16 03:31:54;;;;;;;;;12.00;10.00;;;;;24.32;36.30;101238.78;4977627;28;66709;-71
2023/06/16 03:34:19;;;;;;;;;10.67;9.67;;;;;24.27;36.63;101242.13;4977922;28;45532;-72
2023/06/16 03:36:45;;;;;;;;;12.67;12.67;;;;;24.22;36.22;101239.22;4960833;28;45521;-72
2023/06/16 03:39:10;;;;;;;;;9.33;9.33;;;;;24.19;36.49;101234.25;4979074;28;45558;-74
2023/06/16 03:41:36;;;;;;;;;9.67;9.67;;;;;24.25;36.78;101244.25;4960780;28;47880;-75
2023/06/16 03:44:03;;;;;;;;;14.00;13.00;;;;;24.02;36.48;101206.78;4978486;28;45325;-73
2023/06/16 03:46:31;;;;;;;;;11.33;11.00;;;;;24.24;36.67;101250.72;4978411;28;45312;-75
2023/06/16 03:48:57;;;;;;;;;13.67;11.67;;;;;24.14;36.36;101243.06;4978248;28;45380;-73
2023/06/16 03:51:24;;;;;;;;;6.00;6.00;;;;;24.17;36.53;101249.94;4977625;28;45770;-72
2023/06/16 03:53:50;;;;;;;;;11.33;11.33;;;;;24.09;37.00;101231.22;4977831;28;45465;-72
2023/06/16 03:56:16;;;;;;;;;12.00;12.00;;;;;24.13;37.08;101238.69;4977646;28;45346;-72
2023/06/16 03:58:41;;;;;;;;;10.67;10.67;;;;;23.98;37.05;101219.16;4978396;28;45455;-71
2023/06/16 04:01:09;;;;;;;;;12.67;12.67;;;;;23.76;37.73;101198.84;4978060;28;45507;-71
2023/06/16 04:03:35;;;;;;;;;10.00;10.00;;;;;24.01;37.65;101242.31;4956619;28;45664;-72
2023/06/16 04:06:00;;;;;;;;;12.67;10.33;;;;;23.84;37.45;101212.19;4958039;28;45600;-72
2023/06/16 04:08:26;;;;;;;;;14.00;11.00;;;;;24.06;37.56;101254.22;4943410;28;45521;-74
2023/06/16 04:10:57;;;;;;;;;12.67;11.33;;;;;24.02;37.52;101238.56;4977492;28;46849;-74
2023/06/16 04:13:23;;;;;;;;;10.67;10.00;;;;;23.93;37.83;101235.28;4977376;28;45496;-72
2023/06/16 04:15:48;;;;;;;;;12.00;11.33;;;;;23.94;37.91;101247.81;4977232;28;45379;-73
2023/06/16 04:18:13;;;;;;;;;12.33;10.00;;;;;23.92;37.91;101253.47;4977641;28;45285;-73
2023/06/16 04:20:39;;;;;;;;;12.00;10.00;;;;;23.90;37.80;101247.44;4977611;28;45666;-70
2023/06/16 04:23:06;;;;;;;;;13.33;9.33;;;;;23.93;37.97;101257.00;4976338;28;68733;-71
2023/06/16 04:25:32;;;;;;;;;10.33;9.33;;;;;23.91;38.10;101265.38;4976623;28;45458;-71
2023/06/16 04:27:59;;;;;;;;;9.33;7.33;;;;;23.85;38.10;101244.53;4977377;28;45318;-73
2023/06/16 04:30:24;;;;;;;;;14.00;12.67;;;;;23.92;37.92;101267.03;4977046;28;46400;-73
2023/06/16 04:32:49;;;;;;;;;13.67;12.33;;;;;23.88;37.95;101265.00;4977060;28;45209;-73
2023/06/16 04:35:15;;;;;;;;;13.00;12.00;;;;;23.51;38.29;101210.47;4976979;28;48503;-73
2023/06/16 04:37:41;;;;;;;;;12.67;11.00;;;;;23.86;37.69;101261.66;4977353;28;45393;-74
2023/06/16 04:40:08;;;;;;;;;12.33;10.33;;;;;23.80;38.29;101257.91;4977469;28;46619;-73
2023/06/16 04:42:33;;;;;;;;;14.00;13.33;;;;;23.82;38.34;101258.53;4977827;28;45545;-73
2023/06/16 04:44:59;;;;;;;;;12.00;12.00;;;;;23.88;38.12;101265.81;4977035;28;45388;-74
2023/06/16 04:47:25;;;;;;;;;15.00;15.00;;;;;23.76;38.33;101255.88;4977554;28;45354;-72
2023/06/16 04:49:50;;;;;;;;;13.00;13.00;;;;;23.40;38.88;101197.56;4976793;28;46472;-73
2023/06/16 04:52:15;;;;;;;;;11.67;11.67;;;;;23.76;38.77;101255.88;4976628;28;45374;-74
2023/06/16 04:54:41;;;;;;;;;10.67;10.67;;;;;23.83;38.62;101265.66;4976918;28;45484;-72
2023/06/16 04:57:07;;;;;;;;;10.33;10.33;;;;;23.49;38.38;101203.59;4977343;28;45290;-73
2023/06/16 04:59:32;;;;;;;;;13.67;11.67;;;;;23.83;38.40;101260.22;4976595;28;45595;-72
2023/06/16 05:01:58;;;;;;;;;15.33;10.33;;;;;23.87;38.26;101258.72;4976760;28;45452;-72
2023/06/16 05:04:23;;;;;;;;;12.67;12.33;;;;;23.92;38.74;101258.91;4959415;28;45419;-73
2023/06/16 05:06:49;;;;;;;;;15.33;13.00;;;;;23.83;38.44;101235.78;4978716;28;45798;-74
2023/06/16 05:09:14;;;;;;;;;14.67;13.67;;;;;23.84;38.56;101245.59;4980423;28;45733;-73
2023/06/16 05:11:40;;;;;;;;;12.67;11.33;;;;;23.88;38.30;101263.09;4980411;28;45330;-74
2023/06/16 05:14:05;;;;;;;;;13.00;11.33;;;;;23.91;38.81;101257.25;4979605;28;45200;-72
2023/06/16 05:16:31;;;;;;;;;14.00;13.00;;;;;23.93;38.62;101246.16;4962894;28;45555;-74
2023/06/16 05:18:56;;;;;;;;;14.00;12.67;;;;;23.84;37.95;101234.75;4979774;28;45610;-74
2023/06/16 05:21:25;;;;;;;;;13.67;13.67;;;;;23.96;38.48;101245.72;4979786;28;45294;-72
2023/06/16 05:23:52;;;;;;;;;13.00;13.00;;;;;23.90;38.44;101236.56;4979930;28;45530;-73
2023/06/16 05:26:20;;;;;;;;;13.67;12.67;;;;;23.98;38.23;101240.88;4979834;28;45314;-73
2023/06/16 05:28:45;;;;;;;;;11.00;10.67;;;;;23.92;38.22;101229.03;4979783;28;46555;-73
2023/06/16 05:31:10;;;;;;;;;13.00;13.00;;;;;24.04;38.05;101245.47;4979535;28;55156;-72
2023/06/16 05:33:36;;;;;;;;;13.67;12.33;;;;;24.12;38.08;101255.22;4979828;28;45179;-74
2023/06/16 05:36:01;;;;;;;;;17.67;16.00;;;;;24.14;38.19;101253.09;4979702;28;45209;-73
2023/06/16 05:38:26;;;;;;;;;19.00;15.33;;;;;24.15;38.52;101249.31;4979377;28;65890;-74
2023/06/16 05:40:52;;;;;;;;;12.33;11.00;;;;;24.15;38.04;101243.91;4979523;28;45231;-73
2023/06/16 05:43:17;;;;;;;;;12.67;12.67;;;;;24.17;38.30;101248.06;4976482;28;59505;-75
2023/06/16 05:45:42;;;;;;;;;12.33;12.33;;;;;24.12;38.75;101225.31;4963601;28;56291;-74
2023/06/16 05:48:08;;;;;;;;;15.33;14.33;;;;;24.32;37.99;101250.47;4941884;28;48517;-73
2023/06/16 05:50:33;;;;;;;;;12.67;12.67;;;;;24.38;38.31;101246.03;4973919;28;45311;-73
2023/06/16 05:52:58;;;;;;;;;13.00;12.67;;;;;24.48;38.12;101255.34;4978139;28;45427;-74
2023/06/16 05:55:24;;;;;;;;;14.33;14.33;;;;;24.52;37.67;101229.38;4977645;28;45454;-72
2023/06/16 05:57:49;;;;;;;;;18.00;14.33;;;;;24.70;36.83;101242.16;4944693;28;47577;-71
2023/06/16 06:00:15;;;;;;;;;14.00;14.00;;;;;24.85;36.95;101239.09;4969502;28;45564;-71
2023/06/16 06:02:41;;;;;;;;;10.67;10.67;;;;;24.66;36.80;101193.91;4979871;28;45266;-72
2023/06/16 06:05:06;;;;;;;;;14.67;12.00;;;;;25.08;36.29;101238.44;4978086;28;49029;-72
2023/06/16 06:07:31;;;;;;;;;14.33;14.00;;;;;24.87;35.58;101188.00;4978879;28;45550;-72
2023/06/16 06:09:57;;;;;;;;;14.00;12.00;;;;;25.40;35.67;101252.66;4977074;28;45480;-71
2023/06/16 06:12:22;;;;;;;;;15.00;14.67;;;;;25.62;35.35;101248.38;4979715;28;45324;-74
2023/06/16 06:14:47;;;;;;;;;17.33;16.00;;;;;25.35;34.95;101174.44;4979135;28;45467;-75
2023/06/16 06:17:13;;;;;;;;;15.00;12.67;;;;;25.91;34.92;101233.13;4976535;28;47233;-71
2023/06/16 06:19:38;;;;;;;;;15.67;14.33;;;;;26.18;34.45;101251.75;4976577;28;45337;-70
2023/06/16 06:22:04;;;;;;;;;14.67;14.00;;;;;26.42;34.17;101256.19;4978064;28;45303;-81
2023/06/16 06:24:29;;;;;;;;;14.67;12.33;;;;;26.58;33.81;101252.75;4978798;28;45589;-71
2023/06/16 06:26:56;;;;;;;;;18.67;16.00;;;;;26.51;34.48;101216.63;4978870;28;45603;-73
2023/06/16 06:29:22;;;;;;;;;16.00;13.00;;;;;26.88;33.81;101265.44;4960773;28;45358;-75
2023/06/16 06:31:47;;;;;;;;;15.00;15.00;;;;;27.02;33.23;101252.38;4979136;28;45330;-73
2023/06/16 06:34:13;;;;;;;;;15.33;13.67;;;;;27.20;33.39;101263.16;4979288;28;45548;-73
2023/06/16 06:36:39;;;;;;;;;14.33;14.33;;;;;27.22;32.61;101239.16;4978331;28;46464;-73
2023/06/16 06:39:05;;;;;;;;;17.67;15.67;;;;;27.45;32.59;101260.94;4978611;28;45458;-73
2023/06/16 06:41:30;;;;;;;;;14.67;12.67;;;;;27.61;32.77;101258.50;4955225;28;45439;-72
2023/06/16 06:43:56;;;;;;;;;18.33;16.67;;;;;27.82;32.43;101269.59;4978131;28;45469;-72
2023/06/16 06:46:21;;;;;;;;;18.00;14.00;;;;;27.97;32.06;101277.22;4978091;28;52703;-73
2023/06/16 06:48:46;;;;;;;;;13.33;13.33;;;;;28.12;31.39;101269.31;4978348;28;45488;-72
2023/06/16 06:51:15;;;;;;;;;13.00;13.00;;;;;28.29;31.20;101284.94;4979675;28;45553;-76
2023/06/16 06:53:41;;;;;;;;;14.33;14.33;;;;;28.42;30.92;101281.84;4978172;28;45472;-73
2023/06/16 06:56:06;;;;;;;;;16.00;15.67;;;;;28.48;31.31;101275.38;4977088;28;45685;-73
2023/06/16 06:58:35;;;;;;;;;14.00;12.33;;;;;28.70;30.74;101284.47;4978056;28;45228;-73
2023/06/16 07:01:00;;;;;;;;;15.67;15.00;;;;;28.83;30.24;101294.22;4975588;28;45503;-74
2023/06/16 07:03:26;;;;;;;;;14.33;14.33;;;;;28.93;30.00;101290.84;4977957;28;45314;-72
2023/06/16 07:05:53;;;;;;;;;18.33;16.67;;;;;28.98;29.71;101277.22;4972294;28;46005;-70
2023/06/16 07:08:18;;;;;;;;;16.33;14.33;;;;;28.79;29.57;101232.88;4976591;28;46200;-73
2023/06/16 07:10:43;;;;;;;;;14.67;13.00;;;;;29.23;29.20;101293.97;4976607;28;45355;-72
2023/06/16 07:13:09;;;;;;;;;10.00;10.00;;;;;29.35;28.76;101302.91;4961008;28;45509;-74
2023/06/16 07:15:34;;;;;;;;;15.00;15.00;;;;;29.39;28.48;101298.56;4959789;28;48563;-74
2023/06/16 07:18:00;;;;;;;;;15.00;14.00;;;;;29.46;28.55;101295.69;4977284;28;45563;-73
2023/06/16 07:20:25;;;;;;;;;16.67;15.00;;;;;29.45;28.54;101302.25;4976265;28;45701;-73
2023/06/16 07:22:51;;;;;;;;;15.33;15.33;;;;;29.53;28.23;101300.97;4974481;28;45350;-74
2023/06/16 07:25:16;;;;;;;;;17.33;17.33;;;;;29.44;28.68;101281.38;4953981;28;47269;-72
2023/06/16 07:27:43;;;;;;;;;18.67;17.00;;;;;29.60;28.38;101315.28;4944260;28;45548;-72
2023/06/16 07:30:09;;;;;;;;;19.67;18.00;;;;;29.60;28.52;101304.31;4975372;28;45855;-73
2023/06/16 07:32:39;;;;;;;;;19.33;15.00;;;;;29.72;27.85;101310.50;4976406;28;45499;-73
2023/06/16 07:35:06;;;;;;;;;19.33;16.00;;;;;29.75;28.01;101311.88;4970294;28;46505;-72
2023/06/16 07:37:32;;;;;;;;;15.00;14.00;;;;;29.76;28.03;101308.88;4974804;28;45424;-72
2023/06/16 07:39:58;;;;;;;;;14.67;14.67;;;;;29.80;28.15;101310.03;4976566;28;45535;-73
2023/06/16 07:42:23;;;;;;;;;15.67;15.67;;;;;29.83;27.79;101309.50;4969215;28;45303;-74
2023/06/16 07:44:49;;;;;;;;;15.67;15.67;;;;;29.61;27.95;101257.47;4977359;28;45673;-74
2023/06/16 07:47:14;;;;;;;;;14.33;14.00;;;;;29.92;27.53;101305.22;4977609;28;45354;-72
2023/06/16 07:49:39;;;;;;;;;18.00;16.00;;;;;29.97;27.51;101302.53;4977013;28;45602;-72
2023/06/16 07:52:05;;;;;;;;;16.67;16.67;;;;;29.96;27.72;101300.88;4977260;28;45594;-73
2023/06/16 07:54:31;;;;;;;;;13.00;13.00;;;;;30.01;26.94;101293.78;4977726;28;45820;-73
2023/06/16 07:56:56;;;;;;;;;19.00;16.67;;;;;29.95;26.83;101281.94;4977491;28;45617;-74
2023/06/16 07:59:21;;;;;;;;;17.00;15.67;;;;;29.95;26.44;101274.53;4959601;28;45418;-72
2023/06/16 08:01:47;;;;;;;;;12.67;12.67;;;;;30.07;26.55;101292.78;4977752;28;45235;-72
2023/06/16 08:04:12;;;;;;;;;13.33;13.00;;;;;30.01;26.21;101291.84;4966172;28;46481;-71
2023/06/16 08:06:40;;;;;;;;;20.33;19.67;;;;;30.15;26.40;101311.50;4975609;28;46875;-72
2023/06/16 08:09:07;;;;;;;;;19.00;16.67;;;;;29.88;25.90;101260.22;4977196;28;45361;-73
2023/06/16 08:11:34;;;;;;;;;15.00;15.00;;;;;30.10;26.93;101295.00;4975649;28;45450;-73
2023/06/16 08:13:59;;;;;;;;;14.67;13.00;;;;;30.17;26.57;101309.31;4976599;28;46421;-74
2023/06/16 08:16:24;;;;;;;;;17.67;16.33;;;;;30.15;27.08;101293.13;4976766;28;45293;-72
2023/06/16 08:18:50;;;;;;;;;15.67;15.33;;;;;30.12;26.77;101301.06;4975511;28;45968;-72
2023/06/16 08:21:15;;;;;;;;;16.00;15.00;;;;;30.18;26.31;101295.34;4976632;28;45438;-73
2023/06/16 08:23:41;;;;;;;;;21.00;16.33;;;;;30.07;26.43;101276.34;4976120;28;66987;-72
2023/06/16 08:26:07;;;;;;;;;14.00;14.00;;;;;30.06;27.19;101274.69;4976198;28;46201;-72
2023/06/16 08:28:32;;;;;;;;;14.67;13.67;;;;;30.18;26.63;101297.25;4977014;28;45464;-75
2023/06/16 08:30:57;;;;;;;;;14.33;14.33;;;;;30.17;26.35;101299.16;4977078;28;45587;-74
2023/06/16 08:33:24;;;;;;;;;15.67;14.00;;;;;29.82;26.09;101227.53;4976326;28;45564;-74
2023/06/16 08:35:50;;;;;;;;;18.00;17.00;;;;;30.33;25.73;101296.56;4976215;28;45469;-71
2023/06/16 08:38:16;;;;;;;;;14.00;12.00;;;;;30.31;26.12;101265.81;4975326;28;45589;-71
2023/06/16 08:40:41;;;;;;;;;15.00;15.00;;;;;30.50;25.55;101280.78;4958724;28;45279;-72
2023/06/16 08:43:10;;;;;;;;;13.00;13.00;;;;;30.57;25.68;101284.13;4979142;28;46023;-71
2023/06/16 08:45:37;;;;;;;;;14.00;13.00;;;;;30.43;25.21;101259.03;4975692;28;45567;-74
2023/06/16 08:48:04;;;;;;;;;15.67;14.00;;;;;30.53;24.23;101264.63;4977250;28;45576;-72
2023/06/16 08:50:29;;;;;;;;;15.33;14.33;;;;;30.71;23.90;101279.88;4962105;28;45623;-73
2023/06/16 08:53:00;;;;;;;;;11.67;10.67;;;;;30.74;24.04;101278.50;4978512;28;46460;-71
2023/06/16 08:55:27;;;;;;;;;14.00;12.00;;;;;30.54;23.58;101232.50;4978697;28;45496;-71
2023/06/16 08:57:53;;;;;;;;;11.00;11.00;;;;;30.67;23.30;101245.81;4978185;28;45549;-71
2023/06/16 09:00:18;;;;;;;;;10.33;10.00;;;;;30.74;23.35;101270.25;4961140;28;45628;-74
2023/06/16 09:02:48;;;;;;;;;12.00;11.67;;;;;30.79;22.99;101278.53;4979382;28;45421;-74
2023/06/16 09:05:15;;;;;;;;;14.67;10.67;;;;;30.69;23.69;101268.31;4977921;28;45497;-73
2023/06/16 09:07:41;;;;;;;;;9.33;8.33;;;;;30.82;22.86;101278.81;4974079;28;45505;-74
2023/06/16 09:10:08;;;;;;;;;11.00;10.00;;;;;30.87;22.70;101269.81;4976148;28;45279;-73
2023/06/16 09:12:35;;;;;;;;;13.33;13.33;;;;;30.65;22.66;101237.00;4970020;28;45659;-74
2023/06/16 09:15:01;;;;;;;;;10.00;10.00;;;;;30.86;22.87;101271.72;4978360;28;45306;-72
2023/06/16 09:17:30;;;;;;;;;10.67;10.67;;;;;30.78;22.50;101271.38;4954268;28;46566;-72
2023/06/16 09:19:55;;;;;;;;;9.00;9.00;;;;;30.83;22.53;101274.97;4976255;28;45349;-73
2023/06/16 09:22:26;;;;;;;;;10.33;10.00;;;;;30.91;22.24;101273.66;4978157;28;45550;-72
2023/06/16 09:24:55;;;;;;;;;11.00;11.00;;;;;30.98;21.72;101276.97;4959114;28;45727;-73
2023/06/16 09:27:23;;;;;;;;;8.00;7.00;;;;;30.95;21.35;101250.06;4976826;28;45734;-72
2023/06/16 09:30:07;;;;;;;;;10.00;10.00;;;;;30.93;20.80;101271.47;4961716;28;45600;-74
2023/06/16 09:32:39;;;;;;;;;10.67;10.67;;;;;30.42;21.10;101205.25;4976532;28;46657;-74
2023/06/16 09:35:21;;;;;;;;;7.67;6.67;;;;;30.76;20.81;101262.59;4978130;28;45612;-72
2023/06/16 09:37:48;;;;;;;;;10.33;9.33;;;;;30.78;21.25;101271.38;4970707;28;45673;-71
2023/06/16 09:40:15;;;;;;;;;12.00;12.00;;;;;30.70;21.52;101253.50;4961642;28;45650;-72
2023/06/16 09:42:42;;;;;;;;;11.67;10.33;;;;;30.37;22.00;101193.44;4976146;28;46628;-72
2023/06/16 09:45:09;;;;;;;;;9.67;9.67;;;;;30.67;21.81;101240.31;4960437;28;45635;-72
2023/06/16 09:47:38;;;;;;;;;12.67;11.33;;;;;30.80;21.54;101258.22;4977625;28;45473;-71
2023/06/16 09:50:06;;;;;;;;;10.33;10.33;;;;;30.78;21.46;101260.41;4979036;28;45588;-72
2023/06/16 09:52:32;;;;;;;;;10.33;10.33;;;;;30.72;21.66;101251.31;4978388;28;46730;-73
2023/06/16 09:55:00;;;;;;;;;9.67;9.67;;;;;30.78;21.65;101263.16;4978996;28;45397;-75
2023/06/16 09:57:26;;;;;;;;;10.33;9.00;;;;;30.68;21.44;101239.22;4978106;28;45266;-72
2023/06/16 09:59:52;;;;;;;;;10.33;10.00;;;;;30.75;21.90;101260.94;4978846;28;45539;-71
2023/06/16 10:02:17;;;;;;;;;11.00;8.67;;;;;30.74;21.49;101262.03;4960479;28;46994;-72
2023/06/16 10:04:44;;;;;;;;;8.67;8.67;;;;;30.41;21.62;101217.31;4977787;28;45393;-75
2023/06/16 10:07:09;;;;;;;;;14.00;12.00;;;;;30.57;22.07;101259.41;4959152;28;45496;-71
2023/06/16 10:09:39;;;;;;;;;13.67;11.33;;;;;30.35;21.85;101228.53;4977229;28;46514;-71
2023/06/16 10:12:07;;;;;;;;;14.00;11.67;;;;;30.25;21.33;101237.53;4971464;28;45466;-82
2023/06/16 10:14:34;;;;;;;;;10.00;9.00;;;;;30.32;21.31;101254.59;4959389;28;45338;-72
2023/06/16 10:17:00;;;;;;;;;11.33;9.67;;;;;30.32;22.02;101245.53;4971574;28;45353;-71
2023/06/16 10:19:28;;;;;;;;;9.67;9.67;;;;;30.31;21.82;101255.69;4979181;28;45427;-71
2023/06/16 10:21:55;;;;;;;;;5.33;5.00;;;;;30.17;21.75;101247.06;4978471;28;45882;-71
2023/06/16 10:24:20;;;;;;;;;11.00;10.33;;;;;30.11;21.45;101244.56;4976954;28;45503;-72
2023/06/16 10:26:46;;;;;;;;;14.00;11.67;;;;;30.19;21.56;101260.50;4978900;28;45231;-71
2023/06/16 10:29:16;;;;;;;;;10.00;10.00;;;;;30.03;21.44;101236.75;4978976;28;45306;-71
2023/06/16 10:31:43;;;;;;;;;10.00;9.00;;;;;30.07;21.78;101249.75;4978362;28;46623;-71
2023/06/16 10:34:17;;;;;;;;;13.67;11.67;;;;;30.13;21.89;101245.94;4978560;28;45351;-70
2023/06/16 10:36:42;;;;;;;;;11.00;11.00;;;;;30.15;22.02;101245.69;4960842;28;45447;-71
2023/06/16 10:39:12;;;;;;;;;14.67;13.33;;;;;29.99;21.72;101215.34;4979079;28;45306;-71
2023/06/16 10:41:51;;;;;;;;;13.67;13.33;;;;;30.13;22.16;101245.13;4960632;28;47853;-71
2023/06/16 10:44:21;;;;;;;;;10.33;10.33;;;;;29.96;21.70;101237.81;4978440;28;45330;-72
2023/06/16 10:47:09;;;;;;;;;13.00;13.00;;;;;30.03;22.01;101251.28;4978638;28;45514;-72
2023/06/16 10:49:57;;;;;;;;;13.00;12.00;;;;;29.82;21.77;101216.56;4973487;28;45418;-72
2023/06/16 10:52:28;;;;;;;;;9.33;9.33;;;;;29.87;21.70;101236.66;4965340;28;46466;-70
2023/06/16 10:54:55;;;;;;;;;12.00;11.00;;;;;29.90;21.78;101255.31;4957479;28;45252;-71
2023/06/16 10:57:22;;;;;;;;;11.33;10.67;;;;;29.83;21.41;101243.72;4971392;28;45325;-70
2023/06/16 10:59:53;;;;;;;;;10.00;10.00;;;;;29.84;21.63;101231.69;4977193;28;45281;-73
2023/06/16 11:02:24;;;;;;;;;14.33;11.00;;;;;29.07;21.88;101103.25;4960240;28;46982;-71
2023/06/16 11:05:09;;;;;;;;;13.33;12.33;;;;;29.93;21.77;101241.06;4977634;28;45255;-69
2023/06/16 11:07:57;;;;;;;;;12.33;12.00;;;;;29.95;21.56;101233.41;4977826;28;45469;-74
2023/06/16 11:10:24;;;;;;;;;12.67;11.00;;;;;29.80;22.12;101219.56;4978736;28;45482;-71
2023/06/16 11:12:51;;;;;;;;;11.33;11.33;;;;;29.61;21.43;101185.41;4978177;28;46768;-70